createdAt,value
2022-10-03T00:02:14.841Z,75.67
2022-10-03T00:05:07.354Z,75.80
2022-10-03T00:07:56.519Z,75.69
2022-10-03T00:10:37.050Z,75.80
2022-10-03T00:13:18.007Z,75.63
2022-10-03T00:15:56.812Z,75.88
2022-10-03T00:18:41.088Z,75.32
2022-10-03T00:21:41.528Z,74.63
2022-10-03T00:24:25.156Z,74.81
2022-10-03T00:27:03.414Z,74.37
2022-10-03T00:30:06.101Z,74.39
2022-10-03T00:32:48.073Z,75.68
2022-10-03T00:35:31.503Z,75.79
2022-10-03T00:38:22.057Z,74.85
2022-10-03T00:41:54.695Z,74.66
2022-10-03T00:45:33.675Z,75.59
2022-10-03T00:49:02.426Z,75.67
2022-10-03T00:51:53.878Z,75.98
2022-10-03T00:54:46.272Z,76.09
2022-10-03T00:57:36.262Z,75.99
2022-10-03T01:00:20.090Z,76.36
2022-10-03T01:03:06.456Z,76.21
2022-10-03T01:05:50.731Z,75.99
2022-10-03T01:08:40.694Z,75.50
2022-10-03T01:11:26.289Z,75.81
2022-10-03T01:14:10.810Z,75.36
2022-10-03T01:16:52.948Z,75.42
2022-10-03T01:20:01.727Z,75.23
2022-10-03T01:23:19.014Z,75.17
2022-10-03T01:25:54.314Z,75.78
2022-10-03T01:29:02.328Z,76.16
2022-10-03T01:31:41.924Z,75.62
2022-10-03T01:34:21.831Z,75.43
2022-10-03T01:37:06.134Z,75.58
2022-10-03T01:39:43.266Z,75.45
2022-10-03T01:42:19.978Z,75.18
2022-10-03T01:45:10.235Z,74.92
2022-10-03T01:47:51.428Z,75.03
2022-10-03T01:50:30.233Z,75.30
2022-10-03T01:53:08.408Z,75.33
2022-10-03T01:55:55.810Z,75.72
2022-10-03T01:58:31.238Z,75.97
2022-10-03T02:01:08.303Z,76.21
2022-10-03T02:03:46.890Z,75.91
2022-10-03T02:06:31.289Z,75.61
2022-10-03T02:09:08.882Z,75.92
2022-10-03T02:11:42.902Z,76.21
2022-10-03T02:14:23.452Z,76.43
2022-10-03T02:17:02.764Z,76.48
2022-10-03T02:19:37.354Z,76.25
2022-10-03T02:22:17.062Z,76.07
2022-10-03T02:24:56.779Z,76.15
2022-10-03T02:28:14.777Z,75.83
2022-10-03T02:31:13.985Z,76.16
2022-10-03T02:34:18.166Z,76.00
2022-10-03T02:37:28.284Z,75.51
2022-10-03T02:40:39.523Z,75.73
2022-10-03T02:43:36.240Z,75.04
2022-10-03T02:46:38.003Z,75.17
2022-10-03T02:49:52.100Z,74.24
2022-10-03T02:53:07.572Z,74.45
2022-10-03T02:56:16.356Z,73.95
2022-10-03T02:59:11.787Z,73.66
2022-10-03T03:02:18.310Z,73.37
2022-10-03T03:05:24.318Z,73.46
2022-10-03T03:08:25.296Z,73.42
2022-10-03T03:11:28.881Z,73.14
2022-10-03T03:14:42.570Z,72.72
2022-10-03T03:17:25.070Z,73.05
2022-10-03T03:20:17.519Z,73.36
2022-10-03T03:23:10.216Z,74.03
2022-10-03T03:25:58.938Z,74.03
2022-10-03T03:28:38.441Z,74.70
2022-10-03T03:31:13.678Z,75.13
2022-10-03T03:34:00.150Z,75.14
2022-10-03T03:36:41.320Z,75.51
2022-10-03T03:39:32.048Z,74.96
2022-10-03T03:42:24.723Z,75.57
2022-10-03T03:45:09.624Z,75.40
2022-10-03T03:48:05.505Z,75.59
2022-10-03T03:50:52.889Z,75.30
2022-10-03T03:53:44.584Z,75.60
2022-10-03T03:56:31.976Z,75.18
2022-10-03T03:59:14.691Z,75.93
2022-10-03T04:02:07.408Z,75.71
2022-10-03T04:04:51.976Z,75.87
2022-10-03T04:07:38.691Z,74.73
2022-10-03T04:10:26.613Z,73.88
2022-10-03T04:13:40.596Z,73.08
2022-10-03T04:17:00.670Z,73.31
2022-10-03T04:19:42.432Z,73.28
2022-10-03T04:22:31.191Z,73.11
2022-10-03T04:25:47.271Z,73.27
2022-10-03T04:28:42.116Z,73.44
2022-10-03T04:31:31.991Z,74.01
2022-10-03T04:34:31.029Z,74.27
2022-10-03T04:37:16.386Z,75.41
2022-10-03T04:39:55.399Z,74.87
2022-10-03T04:42:40.895Z,74.98
2022-10-03T04:45:36.895Z,75.56
2022-10-03T04:48:16.520Z,76.30
2022-10-03T04:50:57.390Z,75.91
2022-10-03T04:53:42.357Z,75.42
2022-10-03T04:56:39.893Z,75.14
2022-10-03T04:59:36.208Z,75.64
2022-10-03T05:02:12.686Z,75.14
2022-10-03T05:05:01.797Z,75.65
2022-10-03T05:07:41.503Z,75.53
2022-10-03T05:10:31.795Z,75.12
2022-10-03T05:13:11.377Z,75.37
2022-10-03T05:15:56.407Z,75.20
2022-10-03T05:18:35.316Z,74.99
2022-10-03T05:21:10.386Z,75.03
2022-10-03T05:24:03.606Z,74.72
2022-10-03T05:26:48.148Z,74.77
2022-10-03T05:29:28.328Z,74.62
2022-10-03T05:32:18.071Z,75.00
2022-10-03T05:35:07.218Z,74.71
2022-10-03T05:38:11.631Z,74.74
2022-10-03T05:40:45.069Z,75.12
2022-10-03T05:43:29.511Z,75.01
2022-10-03T05:46:06.237Z,75.18
2022-10-03T05:48:49.642Z,74.94
2022-10-03T05:52:01.520Z,75.14
2022-10-03T05:54:57.663Z,75.47
2022-10-03T05:57:55.247Z,74.84
2022-10-03T06:00:26.171Z,74.89
2022-10-03T06:03:37.773Z,74.63
2022-10-03T06:06:28.811Z,74.87
2022-10-03T06:09:36.234Z,74.67
2022-10-03T06:12:11.396Z,75.29
2022-10-03T06:15:19.981Z,74.99
2022-10-03T06:18:23.006Z,75.07
2022-10-03T06:21:23.193Z,75.39
2022-10-03T06:24:38.383Z,75.26
2022-10-03T06:28:00.560Z,75.71
2022-10-03T06:30:53.674Z,75.81
2022-10-03T06:34:09.317Z,75.48
2022-10-03T06:37:09.394Z,75.01
2022-10-03T06:40:48.237Z,75.42
2022-10-03T06:43:50.156Z,75.76
2022-10-03T06:47:11.740Z,76.02
2022-10-03T06:50:19.980Z,75.38
2022-10-03T06:53:45.899Z,75.82
2022-10-03T06:56:55.604Z,75.69
2022-10-03T07:00:03.025Z,76.23
2022-10-03T07:03:05.174Z,75.62
2022-10-03T07:06:24.375Z,75.48
2022-10-03T07:09:37.324Z,75.66
2022-10-03T07:13:13.051Z,75.99
2022-10-03T07:16:27.655Z,76.00
2022-10-03T07:19:43.594Z,75.93
2022-10-03T07:22:57.452Z,75.56
2022-10-03T07:26:31.837Z,75.27
2022-10-03T07:29:24.523Z,75.70
2022-10-03T07:32:22.796Z,75.26
2022-10-03T07:36:09.375Z,75.47
2022-10-03T07:39:16.834Z,75.50
2022-10-03T07:42:33.035Z,76.41
2022-10-03T07:45:34.845Z,76.19
2022-10-03T07:48:53.189Z,75.05
2022-10-03T07:51:29.636Z,75.64
2022-10-03T07:54:44.057Z,75.07
2022-10-03T07:57:38.125Z,75.05
2022-10-03T08:00:22.711Z,75.09
2022-10-03T08:03:54.305Z,74.24
2022-10-03T08:06:29.954Z,75.46
2022-10-03T08:09:42.728Z,74.74
2022-10-03T08:12:58.508Z,73.80
2022-10-03T08:15:41.037Z,74.85
2022-10-03T08:18:41.892Z,75.60
2022-10-03T08:21:16.197Z,76.03
2022-10-03T08:25:01.961Z,75.87
2022-10-03T08:28:04.141Z,75.91
2022-10-03T08:30:55.181Z,75.36
2022-10-03T08:33:48.608Z,75.54
2022-10-03T08:36:53.413Z,74.79
2022-10-03T08:40:02.032Z,74.04
2022-10-03T08:43:28.043Z,73.71
2022-10-03T08:46:29.861Z,73.77
2022-10-03T08:49:14.395Z,74.02
2022-10-03T08:52:10.799Z,73.86
2022-10-03T08:55:23.719Z,73.86
2022-10-03T08:58:40.149Z,73.15
2022-10-03T09:01:29.098Z,72.69
2022-10-03T09:04:48.893Z,73.07
2022-10-03T09:07:55.761Z,74.85
2022-10-03T09:10:59.464Z,74.45
2022-10-03T09:14:37.523Z,74.66
2022-10-03T09:17:56.790Z,73.73
2022-10-03T09:21:07.485Z,73.38
2022-10-03T09:24:14.596Z,73.05
2022-10-03T09:27:35.871Z,72.79
2022-10-03T09:30:27.059Z,72.71
2022-10-03T09:33:50.605Z,73.47
2022-10-03T09:37:18.208Z,72.49
2022-10-03T09:40:37.718Z,72.05
2022-10-03T09:44:02.089Z,71.68
2022-10-03T09:47:26.322Z,71.41
2022-10-03T09:51:01.178Z,71.21
2022-10-03T09:54:28.162Z,70.84
2022-10-03T09:58:08.684Z,71.19
2022-10-03T10:01:08.346Z,70.90
2022-10-03T10:04:53.638Z,70.49
2022-10-03T10:08:27.780Z,72.29
2022-10-03T10:11:13.812Z,72.91
2022-10-03T10:14:37.798Z,72.05
2022-10-03T10:18:00.480Z,71.88
2022-10-03T10:21:01.573Z,70.65
2022-10-03T10:23:47.878Z,71.63
2022-10-03T10:26:48.295Z,72.64
2022-10-03T10:29:55.746Z,74.14
2022-10-03T10:33:21.732Z,74.36
2022-10-03T10:36:37.047Z,72.12
2022-10-03T10:39:57.108Z,69.89
2022-10-03T10:43:26.231Z,69.77
2022-10-03T10:46:31.357Z,68.75
2022-10-03T10:49:54.506Z,68.67
2022-10-03T10:53:06.202Z,68.99
2022-10-03T10:56:21.530Z,68.64
2022-10-03T10:59:50.832Z,68.04
2022-10-03T11:03:11.898Z,68.28
2022-10-03T11:06:37.108Z,68.62
2022-10-03T11:09:38.172Z,68.27
2022-10-03T11:13:06.969Z,68.32
2022-10-03T11:16:50.105Z,68.64
2022-10-03T11:20:03.908Z,68.02
2022-10-03T11:23:27.098Z,67.71
2022-10-03T11:27:01.344Z,68.09
2022-10-03T11:30:19.226Z,69.04
2022-10-03T11:33:50.435Z,68.31
2022-10-03T11:37:03.801Z,68.41
2022-10-03T11:39:50.319Z,68.14
2022-10-03T11:42:33.325Z,68.38
2022-10-03T11:45:04.966Z,67.54
2022-10-03T11:47:53.989Z,69.00
2022-10-03T11:50:52.736Z,68.03
2022-10-03T11:53:39.915Z,67.97
2022-10-03T11:56:34.240Z,67.00
2022-10-03T11:59:39.268Z,66.25
2022-10-03T12:02:43.206Z,65.20
2022-10-03T12:05:23.276Z,64.97
2022-10-03T12:08:25.551Z,67.44
2022-10-03T12:11:06.292Z,67.48
2022-10-03T12:13:44.504Z,65.54
2022-10-03T12:16:24.002Z,63.56
2022-10-03T12:19:05.358Z,62.73
2022-10-03T12:21:52.212Z,64.28
2022-10-03T12:24:27.972Z,65.72
2022-10-03T12:27:07.396Z,64.56
2022-10-03T12:29:44.180Z,65.36
2022-10-03T12:32:27.974Z,64.23
2022-10-03T12:35:14.760Z,63.71
2022-10-03T12:37:52.658Z,64.04
2022-10-03T12:40:27.834Z,63.84
2022-10-03T12:43:09.348Z,62.86
2022-10-03T12:45:43.358Z,62.93
2022-10-03T12:48:38.014Z,62.91
2022-10-03T12:51:22.407Z,62.16
2022-10-03T12:54:05.316Z,62.68
2022-10-03T12:56:45.989Z,62.43
2022-10-03T12:59:26.135Z,62.99
2022-10-03T13:02:22.303Z,63.56
2022-10-03T13:05:23.486Z,63.68
2022-10-03T13:07:56.750Z,63.49
2022-10-03T13:10:38.832Z,63.00
2022-10-03T13:13:28.447Z,62.46
2022-10-03T13:16:16.741Z,62.33
2022-10-03T13:18:54.611Z,62.54
2022-10-03T13:21:47.040Z,63.00
2022-10-03T13:24:31.993Z,62.59
2022-10-03T13:27:26.953Z,62.54
2022-10-03T13:30:05.266Z,62.53
2022-10-03T13:32:37.020Z,62.44
2022-10-03T13:35:42.005Z,62.52
2022-10-03T13:38:58.664Z,62.16
2022-10-03T13:42:00.607Z,62.51
2022-10-03T13:44:39.805Z,62.99
2022-10-03T13:47:28.906Z,62.20
2022-10-03T13:50:01.589Z,62.19
2022-10-03T13:52:40.160Z,61.78
2022-10-03T13:55:22.038Z,61.44
2022-10-03T13:58:13.303Z,61.59
2022-10-03T14:01:02.092Z,61.72
2022-10-03T14:03:45.429Z,61.82
2022-10-03T14:06:25.092Z,61.91
2022-10-03T14:09:23.023Z,61.55
2022-10-03T14:12:05.479Z,61.64
2022-10-03T14:14:58.035Z,61.94
2022-10-03T14:17:39.515Z,61.51
2022-10-03T14:20:25.185Z,61.94
2022-10-03T14:23:17.022Z,61.91
2022-10-03T14:25:52.808Z,61.48
2022-10-03T14:28:29.438Z,61.70
2022-10-03T14:31:08.227Z,61.42
2022-10-03T14:33:46.311Z,61.44
2022-10-03T14:36:34.540Z,61.58
2022-10-03T14:39:29.760Z,61.19
2022-10-03T14:42:37.905Z,60.50
2022-10-03T14:45:11.535Z,60.95
2022-10-03T14:47:43.746Z,61.15
2022-10-03T14:50:20.284Z,61.29
2022-10-03T14:53:01.992Z,61.01
2022-10-03T14:55:35.000Z,61.03
2022-10-03T14:58:11.481Z,61.46
2022-10-03T15:00:45.238Z,61.74
2022-10-03T15:03:30.470Z,61.23
2022-10-03T15:06:21.154Z,60.98
2022-10-03T15:08:54.479Z,60.86
2022-10-03T15:11:29.746Z,61.00
2022-10-03T15:14:02.581Z,60.54
2022-10-03T15:16:37.238Z,60.74
2022-10-03T15:19:11.091Z,60.31
2022-10-03T15:21:43.975Z,60.50
2022-10-03T15:24:25.145Z,60.32
2022-10-03T15:27:03.116Z,60.23
2022-10-03T15:29:34.118Z,60.64
2022-10-03T15:32:08.342Z,60.97
2022-10-03T15:34:42.141Z,60.96
2022-10-03T15:37:19.503Z,60.81
2022-10-03T15:39:52.491Z,60.63
2022-10-03T15:42:29.893Z,60.74
2022-10-03T15:45:03.771Z,60.86
2022-10-03T15:47:36.689Z,60.75
2022-10-03T15:50:16.551Z,60.50
2022-10-03T15:52:49.739Z,60.59
2022-10-03T15:55:24.192Z,60.81
2022-10-03T15:58:10.996Z,60.51
2022-10-03T16:00:42.697Z,60.90
2022-10-03T16:03:18.453Z,61.00
2022-10-03T16:06:04.175Z,61.29
2022-10-03T16:08:36.931Z,61.51
2022-10-03T16:11:14.198Z,61.24
2022-10-03T16:13:47.637Z,60.94
2022-10-03T16:16:20.381Z,61.20
2022-10-03T16:19:01.679Z,61.36
2022-10-03T16:21:48.642Z,61.74
2022-10-03T16:24:29.673Z,62.05
2022-10-03T16:27:08.043Z,62.04
2022-10-03T16:29:39.935Z,62.44
2022-10-03T16:32:11.123Z,62.97
2022-10-03T16:34:45.379Z,62.80
2022-10-03T16:37:23.176Z,63.33
2022-10-03T16:40:00.439Z,63.66
2022-10-03T16:42:40.488Z,64.00
2022-10-03T16:45:23.378Z,64.73
2022-10-03T16:48:13.189Z,64.92
2022-10-03T16:50:49.967Z,65.28
2022-10-03T16:53:19.066Z,65.46
2022-10-03T16:55:55.405Z,65.52
2022-10-03T16:58:31.273Z,65.45
2022-10-03T17:03:59.854Z,66.01
2022-10-03T17:06:33.339Z,66.19
2022-10-03T17:09:08.451Z,66.03
2022-10-03T17:11:39.804Z,65.88
2022-10-03T17:14:10.144Z,66.20
2022-10-03T17:16:47.741Z,66.67
2022-10-03T17:19:27.955Z,66.69
2022-10-03T17:22:03.681Z,67.42
2022-10-03T17:24:46.460Z,67.32
2022-10-03T17:27:27.763Z,67.72
2022-10-03T17:30:03.556Z,67.80
2022-10-03T17:32:38.839Z,67.60
2022-10-03T17:35:19.018Z,67.51
2022-10-03T17:38:49.426Z,67.52
2022-10-03T17:41:19.424Z,68.29
2022-10-03T17:44:00.524Z,68.19
2022-10-03T17:46:40.753Z,68.61
2022-10-03T17:49:21.866Z,68.39
2022-10-03T17:51:54.260Z,68.30
2022-10-03T17:54:29.743Z,68.16
2022-10-03T17:57:06.068Z,68.69
2022-10-03T17:59:45.255Z,68.77
2022-10-03T18:02:22.144Z,68.83
2022-10-03T18:05:01.903Z,68.37
2022-10-03T18:07:31.185Z,68.63
2022-10-03T18:10:01.316Z,68.55
2022-10-03T18:12:36.130Z,68.92
2022-10-03T18:15:46.913Z,69.10
2022-10-03T18:18:58.932Z,69.30
2022-10-03T18:21:41.234Z,68.62
2022-10-03T18:24:44.191Z,68.71
2022-10-03T18:28:13.227Z,68.48
2022-10-03T18:30:50.927Z,68.59
2022-10-03T18:33:25.082Z,68.36
2022-10-03T18:35:54.230Z,67.84
2022-10-03T18:38:24.601Z,67.99
2022-10-03T18:40:57.738Z,68.16
2022-10-03T18:43:37.461Z,67.89
2022-10-03T18:46:16.388Z,68.60
2022-10-03T18:49:35.102Z,67.49
2022-10-03T18:52:11.479Z,67.78
2022-10-03T18:54:57.212Z,67.86
2022-10-03T18:57:35.370Z,67.80
2022-10-03T19:00:18.074Z,67.64
2022-10-03T19:02:53.327Z,67.81
2022-10-03T19:05:25.867Z,67.98
2022-10-03T19:08:10.154Z,68.21
2022-10-03T19:10:45.811Z,68.23
2022-10-03T19:13:27.071Z,67.99
2022-10-03T19:16:17.954Z,67.93
2022-10-03T19:18:53.861Z,68.48
2022-10-03T19:21:22.630Z,67.95
2022-10-03T19:23:58.415Z,67.85
2022-10-03T19:26:36.040Z,67.71
2022-10-03T19:29:09.327Z,68.49
2022-10-03T19:31:41.983Z,68.81
2022-10-03T19:34:22.991Z,68.80
2022-10-03T19:36:53.328Z,68.59
2022-10-03T19:39:23.229Z,68.33
2022-10-03T19:41:56.862Z,68.26
2022-10-03T19:44:27.596Z,68.52
2022-10-03T19:47:13.347Z,67.57
2022-10-03T19:50:04.726Z,68.10
2022-10-03T19:52:35.368Z,68.88
2022-10-03T19:55:13.735Z,67.95
2022-10-03T19:57:51.727Z,68.41
2022-10-03T20:00:28.902Z,67.90
2022-10-03T20:03:12.979Z,67.57
2022-10-03T20:05:52.353Z,67.34
2022-10-03T20:08:30.381Z,68.25
2022-10-03T20:11:29.977Z,68.67
2022-10-03T20:13:58.794Z,69.24
2022-10-03T20:16:33.468Z,68.37
2022-10-03T20:19:10.580Z,67.93
2022-10-03T20:21:39.118Z,68.53
2022-10-03T20:24:14.200Z,68.23
2022-10-03T20:26:50.572Z,68.00
2022-10-03T20:29:27.113Z,68.39
2022-10-03T20:32:01.602Z,68.10
2022-10-03T20:34:34.433Z,68.01
2022-10-03T20:37:26.334Z,68.08
2022-10-03T20:40:05.990Z,68.13
2022-10-03T20:42:37.478Z,67.10
2022-10-03T20:45:14.995Z,67.74
2022-10-03T20:47:56.052Z,67.69
2022-10-03T20:50:30.586Z,66.89
2022-10-03T20:53:01.826Z,67.30
2022-10-03T20:55:34.205Z,68.26
2022-10-03T20:58:17.134Z,68.28
2022-10-03T21:00:50.444Z,68.88
2022-10-03T21:03:30.440Z,68.64
2022-10-03T21:06:01.095Z,68.78
2022-10-03T21:08:36.249Z,68.73
2022-10-03T21:11:16.080Z,68.57
2022-10-03T21:13:49.739Z,69.02
2022-10-03T21:16:22.200Z,69.50
2022-10-03T21:18:53.118Z,69.55
2022-10-03T21:21:27.953Z,68.84
2022-10-03T21:24:03.973Z,68.29
2022-10-03T21:26:38.470Z,68.40
2022-10-03T21:29:19.466Z,68.28
2022-10-03T21:31:55.698Z,68.15
2022-10-03T21:34:32.119Z,67.53
2022-10-03T21:37:13.924Z,68.23
2022-10-03T21:40:00.745Z,68.11
2022-10-03T21:42:35.928Z,68.37
2022-10-03T21:45:22.168Z,68.67
2022-10-03T21:47:57.103Z,68.40
2022-10-03T21:50:30.835Z,68.79
2022-10-03T21:53:17.952Z,68.22
2022-10-03T21:56:19.447Z,68.24
2022-10-03T21:59:15.849Z,69.28
2022-10-03T22:01:54.410Z,68.89
2022-10-03T22:04:30.032Z,68.18
2022-10-03T22:07:06.713Z,67.90
2022-10-03T22:09:36.389Z,68.33
2022-10-03T22:12:08.112Z,68.11
2022-10-03T22:14:45.003Z,67.73
2022-10-03T22:17:24.341Z,67.79
2022-10-03T22:19:58.348Z,68.07
2022-10-03T22:22:47.245Z,68.70
2022-10-03T22:25:32.020Z,68.26
2022-10-03T22:28:10.175Z,68.42
2022-10-03T22:30:50.246Z,68.89
2022-10-03T22:33:32.592Z,68.44
2022-10-03T22:36:03.979Z,68.93
2022-10-03T22:38:36.440Z,68.85
2022-10-03T22:41:13.311Z,68.74
2022-10-03T22:43:43.330Z,68.62
2022-10-03T22:46:18.311Z,68.52
2022-10-03T22:48:51.291Z,67.88
2022-10-03T22:51:22.456Z,67.61
2022-10-03T22:53:56.998Z,67.44
2022-10-03T22:56:45.336Z,67.12
2022-10-03T22:59:20.242Z,67.90
2022-10-03T23:01:52.408Z,68.38
2022-10-03T23:04:31.662Z,67.46
2022-10-03T23:07:45.915Z,67.68
2022-10-03T23:10:34.018Z,67.62
2022-10-03T23:13:11.057Z,67.21
2022-10-03T23:15:43.255Z,68.03
2022-10-03T23:18:44.398Z,67.71
2022-10-03T23:21:13.674Z,67.78
2022-10-03T23:24:01.905Z,67.68
2022-10-03T23:27:21.374Z,67.61
2022-10-03T23:30:50.861Z,67.15
2022-10-03T23:33:55.626Z,67.68
2022-10-03T23:36:25.530Z,67.65
2022-10-03T23:38:59.642Z,68.24
2022-10-03T23:41:45.650Z,68.17
2022-10-03T23:44:49.414Z,68.35
2022-10-03T23:47:27.470Z,68.37
2022-10-03T23:49:57.011Z,68.48
2022-10-03T23:52:31.627Z,68.64
2022-10-03T23:55:06.699Z,68.85
2022-10-03T23:57:40.981Z,68.12
